createdAt,value
2022-09-10T00:00:12.842Z,0.77
2022-09-10T00:01:16.977Z,0.80
2022-09-10T00:02:18.945Z,0.68
2022-09-10T00:03:22.090Z,0.70
2022-09-10T00:04:25.237Z,0.60
2022-09-10T00:05:27.669Z,0.70
2022-09-10T00:06:34.351Z,0.95
2022-09-10T00:07:36.305Z,0.75
2022-09-10T00:08:39.535Z,0.60
2022-09-10T00:09:42.797Z,0.65
2022-09-10T00:10:46.708Z,0.60
2022-09-10T00:11:51.084Z,0.60
2022-09-10T00:12:53.069Z,0.65
2022-09-10T00:13:57.238Z,0.60
2022-09-10T00:14:59.664Z,0.80
2022-09-10T00:16:04.069Z,0.70
2022-09-10T00:17:07.468Z,0.63
2022-09-10T00:18:10.653Z,1.00
2022-09-10T00:19:14.657Z,0.80
2022-09-10T00:20:16.833Z,0.60
2022-09-10T00:21:21.500Z,0.70
2022-09-10T00:22:23.465Z,0.70
2022-09-10T00:23:28.927Z,0.80
2022-09-10T00:24:33.712Z,0.63
2022-09-10T00:25:35.639Z,0.70
2022-09-10T00:26:39.842Z,0.70
2022-09-10T00:27:43.289Z,0.55
2022-09-10T00:28:46.305Z,0.73
2022-09-10T00:29:51.875Z,0.85
2022-09-10T00:30:56.157Z,0.60
2022-09-10T00:31:59.258Z,0.57
2022-09-10T00:33:01.238Z,0.68
2022-09-10T00:34:05.753Z,0.88
2022-09-10T00:35:08.409Z,0.70
2022-09-10T00:36:15.909Z,0.70
2022-09-10T00:37:18.366Z,0.50
2022-09-10T00:38:21.297Z,0.60
2022-09-10T00:39:23.651Z,0.60
2022-09-10T00:40:26.664Z,0.50
2022-09-10T00:41:29.702Z,0.60
2022-09-10T00:42:32.577Z,0.80
2022-09-10T00:43:53.433Z,0.98
2022-09-10T00:45:01.439Z,0.80
2022-09-10T00:46:03.755Z,0.80
2022-09-10T00:47:09.082Z,0.70
2022-09-10T00:48:16.610Z,0.70
2022-09-10T00:49:23.939Z,0.65
2022-09-10T00:50:30.014Z,0.75
2022-09-10T00:51:35.042Z,0.80
2022-09-10T00:52:41.582Z,0.70
2022-09-10T00:53:43.554Z,0.80
2022-09-10T00:54:47.836Z,0.60
2022-09-10T00:55:53.929Z,0.75
2022-09-10T00:57:04.110Z,0.60
2022-09-10T00:58:08.461Z,0.98
2022-09-10T00:59:17.824Z,0.65
2022-09-10T01:00:19.898Z,0.70
2022-09-10T01:01:23.131Z,0.70
2022-09-10T01:02:26.020Z,0.80
2022-09-10T01:03:30.271Z,0.63
2022-09-10T01:04:32.477Z,0.60
2022-09-10T01:05:35.472Z,0.68
2022-09-10T01:06:39.098Z,0.95
2022-09-10T01:07:42.868Z,0.80
2022-09-10T01:08:45.347Z,0.80
2022-09-10T01:09:48.937Z,0.68
2022-09-10T01:11:04.204Z,0.80
2022-09-10T01:12:21.980Z,0.82
2022-09-10T01:13:40.470Z,0.70
2022-09-10T01:15:06.256Z,1.20
2022-09-10T01:16:18.034Z,0.70
2022-09-10T01:17:30.146Z,0.80
2022-09-10T01:18:43.568Z,0.82
2022-09-10T01:20:14.162Z,0.75
2022-09-10T01:21:31.590Z,0.68
2022-09-10T01:22:47.365Z,0.80
2022-09-10T01:24:23.417Z,0.70
2022-09-10T01:25:41.469Z,0.70
2022-09-10T01:27:17.981Z,0.70
2022-09-10T01:28:27.794Z,0.75
2022-09-10T01:29:38.997Z,0.77
2022-09-10T01:30:44.736Z,0.70
2022-09-10T01:31:51.776Z,0.80
2022-09-10T01:33:04.006Z,0.70
2022-09-10T01:34:18.997Z,0.90
2022-09-10T01:35:30.222Z,0.80
2022-09-10T01:36:39.069Z,0.88
2022-09-10T01:37:46.305Z,1.00
2022-09-10T01:38:50.785Z,0.70
2022-09-10T01:39:56.101Z,0.73
2022-09-10T01:41:00.145Z,0.70
2022-09-10T01:42:06.973Z,0.85
2022-09-10T01:43:12.637Z,0.80
2022-09-10T01:44:44.830Z,0.80
2022-09-10T01:45:59.035Z,0.70
2022-09-10T01:47:09.332Z,0.80
2022-09-10T01:48:30.055Z,0.70
2022-09-10T01:49:39.200Z,0.80
2022-09-10T01:50:49.357Z,0.77
2022-09-10T01:52:08.698Z,0.80
2022-09-10T01:53:33.352Z,0.80
2022-09-10T01:54:46.270Z,0.77
2022-09-10T01:55:56.030Z,0.70
2022-09-10T01:57:09.618Z,0.80
2022-09-10T01:58:19.626Z,0.80
2022-09-10T01:59:34.415Z,0.85
2022-09-10T02:00:44.659Z,1.13
2022-09-10T02:01:51.549Z,0.90
2022-09-10T02:03:00.075Z,0.80
2022-09-10T02:04:08.950Z,0.90
2022-09-10T02:05:14.952Z,0.75
2022-09-10T02:06:22.533Z,1.10
2022-09-10T02:07:26.943Z,0.90
2022-09-10T02:08:33.654Z,0.80
2022-09-10T02:09:37.405Z,1.45
2022-09-10T02:10:53.793Z,1.00
2022-09-10T02:11:58.597Z,0.80
2022-09-10T02:13:31.345Z,0.75
2022-09-10T02:14:49.781Z,0.90
2022-09-10T02:16:01.077Z,1.10
2022-09-10T02:17:08.937Z,0.70
2022-09-10T02:18:12.230Z,0.85
2022-09-10T02:19:15.744Z,0.98
2022-09-10T02:20:19.401Z,0.98
2022-09-10T02:21:21.392Z,1.27
2022-09-10T02:22:25.021Z,0.70
2022-09-10T02:23:31.590Z,0.73
2022-09-10T02:24:34.589Z,0.70
2022-09-10T02:25:37.449Z,0.85
2022-09-10T02:26:43.477Z,0.77
2022-09-10T02:27:45.796Z,0.82
2022-09-10T02:28:49.640Z,0.73
2022-09-10T02:29:52.059Z,0.70
2022-09-10T02:30:54.998Z,0.70
2022-09-10T02:31:58.398Z,0.70
2022-09-10T02:33:01.329Z,1.25
2022-09-10T02:34:03.533Z,0.80
2022-09-10T02:35:08.069Z,0.77
2022-09-10T02:36:10.330Z,0.70
2022-09-10T02:37:13.454Z,0.70
2022-09-10T02:38:16.872Z,0.90
2022-09-10T02:39:20.051Z,1.00
2022-09-10T02:40:22.130Z,0.98
2022-09-10T02:41:25.941Z,0.90
2022-09-10T02:42:29.553Z,1.30
2022-09-10T02:43:38.010Z,1.40
2022-09-10T02:44:40.013Z,1.38
2022-09-10T02:45:43.045Z,1.35
2022-09-10T02:46:45.128Z,1.08
2022-09-10T02:47:51.030Z,0.80
2022-09-10T02:48:55.166Z,1.00
2022-09-10T02:50:01.970Z,1.00
2022-09-10T02:51:04.103Z,1.08
2022-09-10T02:52:07.269Z,0.80
2022-09-10T02:53:12.300Z,0.80
2022-09-10T02:54:15.297Z,0.70
2022-09-10T02:55:18.545Z,0.80
2022-09-10T02:56:22.970Z,0.77
2022-09-10T02:57:25.112Z,1.00
2022-09-10T02:58:28.100Z,0.98
2022-09-10T02:59:30.841Z,0.80
2022-09-10T03:00:33.760Z,0.98
2022-09-10T03:01:36.411Z,0.85
2022-09-10T03:02:41.339Z,0.82
2022-09-10T03:03:48.576Z,0.95
2022-09-10T03:04:51.514Z,1.05
2022-09-10T03:05:53.459Z,0.82
2022-09-10T03:06:56.460Z,0.80
2022-09-10T03:07:58.486Z,0.75
2022-09-10T03:09:02.106Z,0.77
2022-09-10T03:10:04.748Z,0.70
2022-09-10T03:11:15.304Z,1.00
2022-09-10T03:12:17.351Z,0.90
2022-09-10T03:13:20.281Z,1.10
2022-09-10T03:14:23.079Z,0.80
2022-09-10T03:15:26.261Z,0.80
2022-09-10T03:16:28.240Z,0.80
2022-09-10T03:17:32.172Z,1.00
2022-09-10T03:18:35.255Z,0.75
2022-09-10T03:19:40.419Z,0.80
2022-09-10T03:20:42.410Z,0.75
2022-09-10T03:21:47.542Z,1.27
2022-09-10T03:22:51.357Z,0.80
2022-09-10T03:23:57.233Z,1.02
2022-09-10T03:25:04.822Z,0.90
2022-09-10T03:26:07.964Z,1.00
2022-09-10T03:27:10.233Z,1.20
2022-09-10T03:28:13.176Z,0.82
2022-09-10T03:29:15.534Z,1.00
2022-09-10T03:30:20.460Z,0.95
2022-09-10T03:31:22.543Z,0.90
2022-09-10T03:32:26.570Z,1.10
2022-09-10T03:33:29.657Z,1.00
2022-09-10T03:34:32.600Z,1.02
2022-09-10T03:35:35.872Z,0.90
2022-09-10T03:36:38.839Z,1.00
2022-09-10T03:37:43.516Z,0.70
2022-09-10T03:38:46.949Z,0.88
2022-09-10T03:39:49.800Z,1.00
2022-09-10T03:40:53.327Z,1.38
2022-09-10T03:41:56.344Z,1.15
2022-09-10T03:42:59.013Z,1.23
2022-09-10T03:44:02.239Z,0.80
2022-09-10T03:45:04.874Z,1.05
2022-09-10T03:46:08.081Z,1.17
2022-09-10T03:47:14.148Z,1.20
2022-09-10T03:48:17.584Z,0.90
2022-09-10T03:49:20.257Z,0.85
2022-09-10T03:50:23.386Z,0.80
2022-09-10T03:51:29.337Z,0.90
2022-09-10T03:52:33.338Z,0.70
2022-09-10T03:53:38.547Z,0.80
2022-09-10T03:54:42.291Z,1.00
2022-09-10T03:55:44.784Z,0.85
2022-09-10T03:56:47.870Z,0.70
2022-09-10T03:57:49.885Z,0.80
2022-09-10T03:58:53.004Z,0.88
2022-09-10T03:59:55.326Z,1.20
2022-09-10T04:00:58.334Z,1.30
2022-09-10T04:02:00.713Z,0.80
2022-09-10T04:03:05.367Z,1.00
2022-09-10T04:04:08.359Z,1.00
2022-09-10T04:05:11.362Z,0.90
2022-09-10T04:06:16.100Z,0.90
2022-09-10T04:07:21.250Z,1.00
2022-09-10T04:08:24.993Z,0.80
2022-09-10T04:09:29.021Z,0.90
2022-09-10T04:10:33.929Z,0.82
2022-09-10T04:11:37.253Z,1.20
2022-09-10T04:12:39.313Z,0.90
2022-09-10T04:13:43.769Z,0.80
2022-09-10T04:14:46.973Z,1.73
2022-09-10T04:15:51.312Z,1.13
2022-09-10T04:16:53.366Z,0.90
2022-09-10T04:17:56.601Z,0.80
2022-09-10T04:19:00.544Z,1.13
2022-09-10T04:20:05.161Z,0.80
2022-09-10T04:21:07.323Z,0.70
2022-09-10T04:22:11.064Z,0.80
2022-09-10T04:23:15.894Z,0.80
2022-09-10T04:24:19.370Z,0.80
2022-09-10T04:25:21.438Z,0.90
2022-09-10T04:26:24.953Z,0.65
2022-09-10T04:27:27.493Z,0.75
2022-09-10T04:28:31.303Z,0.70
2022-09-10T04:29:33.425Z,0.90
2022-09-10T04:30:37.728Z,0.90
2022-09-10T04:31:39.846Z,0.90
2022-09-10T04:32:47.908Z,0.90
2022-09-10T04:33:49.941Z,0.90
2022-09-10T04:34:57.112Z,0.80
2022-09-10T04:36:00.912Z,1.05
2022-09-10T04:37:04.360Z,0.85
2022-09-10T04:38:08.108Z,0.95
2022-09-10T04:39:15.396Z,1.00
2022-09-10T04:40:17.761Z,1.10
2022-09-10T04:41:20.736Z,0.90
2022-09-10T04:42:23.461Z,1.00
2022-09-10T04:43:28.739Z,1.25
2022-09-10T04:44:31.952Z,1.15
2022-09-10T04:45:35.313Z,1.10
2022-09-10T04:46:37.364Z,1.02
2022-09-10T04:47:43.782Z,0.88
2022-09-10T04:48:47.389Z,0.90
2022-09-10T04:49:54.413Z,1.30
2022-09-10T04:51:15.132Z,1.05
2022-09-10T04:52:22.773Z,1.13
2022-09-10T04:53:27.706Z,1.10
2022-09-10T04:54:33.900Z,1.10
2022-09-10T04:55:39.744Z,1.10
2022-09-10T04:56:44.169Z,1.13
2022-09-10T04:57:46.133Z,1.35
2022-09-10T04:59:03.457Z,1.10
2022-09-10T05:00:10.602Z,0.95
2022-09-10T05:01:15.080Z,0.90
2022-09-10T05:02:19.373Z,0.88
2022-09-10T05:03:25.049Z,0.82
2022-09-10T05:04:28.446Z,1.00
2022-09-10T05:05:33.918Z,1.20
2022-09-10T05:06:37.096Z,0.80
2022-09-10T05:07:42.446Z,0.80
2022-09-10T05:08:44.525Z,1.40
2022-09-10T05:09:47.683Z,1.25
2022-09-10T05:10:51.829Z,1.45
2022-09-10T05:11:54.857Z,1.20
2022-09-10T05:12:57.017Z,0.90
2022-09-10T05:14:03.330Z,1.27
2022-09-10T05:15:08.008Z,0.77
2022-09-10T05:16:11.100Z,0.80
2022-09-10T05:17:13.217Z,0.80
2022-09-10T05:18:16.582Z,1.00
2022-09-10T05:19:18.634Z,0.90
2022-09-10T05:20:27.621Z,0.95
2022-09-10T05:21:31.227Z,0.88
2022-09-10T05:22:40.113Z,0.80
2022-09-10T05:23:42.601Z,1.00
2022-09-10T05:24:46.590Z,0.90
2022-09-10T05:25:49.670Z,0.85
2022-09-10T05:26:53.926Z,0.90
2022-09-10T05:27:57.363Z,0.70
2022-09-10T05:29:00.405Z,0.88
2022-09-10T05:30:05.038Z,0.80
2022-09-10T05:31:09.693Z,0.80
2022-09-10T05:32:13.289Z,1.02
2022-09-10T05:33:15.453Z,0.95
2022-09-10T05:34:18.995Z,0.90
2022-09-10T05:35:21.081Z,0.75
2022-09-10T05:36:25.100Z,0.90
2022-09-10T05:37:27.149Z,0.70
2022-09-10T05:38:30.287Z,0.90
2022-09-10T05:39:32.640Z,0.70
2022-09-10T05:40:35.752Z,1.00
2022-09-10T05:41:38.053Z,0.73
2022-09-10T05:42:41.206Z,0.90
2022-09-10T05:43:43.184Z,1.00
2022-09-10T05:44:47.146Z,0.80
2022-09-10T05:45:52.163Z,1.02
2022-09-10T05:46:55.996Z,0.77
2022-09-10T05:47:57.988Z,0.90
2022-09-10T05:49:01.173Z,0.70
2022-09-10T05:50:03.599Z,0.82
2022-09-10T05:51:07.245Z,1.13
2022-09-10T05:52:09.566Z,1.02
2022-09-10T05:53:12.884Z,0.88
2022-09-10T05:54:16.117Z,1.00
2022-09-10T05:55:19.485Z,1.00
2022-09-10T05:56:22.485Z,0.90
2022-09-10T05:57:26.259Z,1.00
2022-09-10T05:58:28.274Z,0.90
2022-09-10T05:59:31.258Z,0.90
2022-09-10T06:00:33.642Z,1.10
2022-09-10T06:01:39.414Z,1.20
2022-09-10T06:02:42.333Z,1.00
2022-09-10T06:03:58.012Z,0.70
2022-09-10T06:05:00.651Z,0.82
2022-09-10T06:06:03.604Z,1.00
2022-09-10T06:07:09.114Z,1.02
2022-09-10T06:08:12.565Z,1.00
2022-09-10T06:09:19.267Z,0.77
2022-09-10T06:10:57.684Z,0.90
2022-09-10T06:12:02.192Z,1.10
2022-09-10T06:13:07.063Z,1.33
2022-09-10T06:14:09.224Z,1.08
2022-09-10T06:15:12.530Z,0.90
2022-09-10T06:16:15.339Z,0.95
2022-09-10T06:17:21.329Z,1.05
2022-09-10T06:18:24.382Z,1.35
2022-09-10T06:19:27.873Z,1.42
2022-09-10T06:20:30.982Z,1.17
2022-09-10T06:21:34.240Z,1.02
2022-09-10T06:22:36.524Z,1.08
2022-09-10T06:23:40.623Z,1.75
2022-09-10T06:24:43.850Z,1.67
2022-09-10T06:25:47.426Z,1.10
2022-09-10T06:26:51.120Z,0.95
2022-09-10T06:27:53.205Z,1.10
2022-09-10T06:28:56.893Z,0.98
2022-09-10T06:29:59.369Z,1.35
2022-09-10T06:31:04.353Z,0.95
2022-09-10T06:32:07.620Z,1.13
2022-09-10T06:33:13.178Z,1.00
2022-09-10T06:34:19.138Z,1.33
2022-09-10T06:35:22.820Z,1.00
2022-09-10T06:36:27.547Z,1.00
2022-09-10T06:37:34.947Z,1.30
2022-09-10T06:38:40.920Z,1.17
2022-09-10T06:39:44.576Z,1.70
2022-09-10T06:40:52.680Z,1.45
2022-09-10T06:41:55.843Z,1.10
2022-09-10T06:43:17.154Z,1.42
2022-09-10T06:44:39.436Z,1.10
2022-09-10T06:45:57.264Z,1.17
2022-09-10T06:48:01.140Z,0.98
2022-09-10T06:48:48.055Z,1.05
2022-09-10T06:49:53.366Z,1.25
2022-09-10T06:50:59.808Z,1.00
2022-09-10T06:52:11.582Z,1.20
2022-09-10T06:53:14.208Z,1.10
2022-09-10T06:54:17.754Z,1.20
2022-09-10T06:55:20.107Z,1.63
2022-09-10T06:56:24.033Z,1.25
2022-09-10T06:57:26.599Z,1.15
2022-09-10T06:58:33.153Z,1.25
2022-09-10T06:59:37.363Z,1.30
2022-09-10T07:02:04.124Z,1.10
2022-09-10T07:03:07.980Z,1.50
2022-09-10T07:04:12.982Z,1.73
2022-09-10T07:05:16.373Z,1.08
2022-09-10T07:06:20.134Z,1.33
2022-09-10T07:07:25.810Z,1.25
2022-09-10T07:08:29.725Z,1.25
2022-09-10T07:09:32.491Z,1.38
2022-09-10T07:10:37.334Z,1.00
2022-09-10T07:11:42.094Z,1.38
2022-09-10T07:12:46.934Z,0.90
2022-09-10T07:13:52.240Z,1.13
2022-09-10T07:14:56.194Z,0.93
2022-09-10T07:16:03.202Z,0.90
2022-09-10T07:17:07.514Z,1.10
2022-09-10T07:18:19.302Z,1.10
2022-09-10T07:19:29.989Z,1.20
2022-09-10T07:20:33.275Z,1.10
2022-09-10T07:21:37.924Z,1.30
2022-09-10T07:22:43.745Z,0.98
2022-09-10T07:23:51.758Z,0.90
2022-09-10T07:24:55.313Z,1.20
2022-09-10T07:26:23.035Z,1.10
2022-09-10T07:27:27.921Z,0.80
2022-09-10T07:28:33.155Z,0.80
2022-09-10T07:29:36.357Z,1.25
2022-09-10T07:30:41.280Z,0.90
2022-09-10T07:31:47.286Z,0.75
2022-09-10T07:32:55.234Z,0.90
2022-09-10T07:34:03.680Z,0.93
2022-09-10T07:35:08.497Z,1.10
2022-09-10T07:36:12.452Z,0.98
2022-09-10T07:37:15.767Z,1.17
2022-09-10T07:38:20.601Z,0.80
2022-09-10T07:39:26.040Z,1.25
2022-09-10T07:40:31.795Z,0.93
2022-09-10T07:41:34.642Z,0.70
2022-09-10T07:42:39.521Z,0.82
2022-09-10T07:43:43.222Z,0.70
2022-09-10T07:45:19.433Z,0.88
2022-09-10T07:46:25.471Z,0.93
2022-09-10T07:47:28.905Z,1.00
2022-09-10T07:48:33.296Z,0.80
2022-09-10T07:49:37.433Z,0.90
2022-09-10T07:50:42.098Z,1.00
2022-09-10T07:51:45.848Z,1.00
2022-09-10T07:52:50.589Z,1.30
2022-09-10T07:53:54.079Z,1.00
2022-09-10T07:54:58.382Z,1.00
2022-09-10T07:56:01.983Z,1.00
2022-09-10T07:57:11.155Z,1.00
2022-09-10T07:58:13.517Z,1.25
2022-09-10T07:59:20.240Z,0.80
2022-09-10T08:00:30.271Z,0.90
2022-09-10T08:01:37.846Z,1.08
2022-09-10T08:02:41.779Z,0.90
2022-09-10T08:03:45.103Z,1.00
2022-09-10T08:04:48.892Z,1.00
2022-09-10T08:05:55.068Z,1.05
2022-09-10T08:06:57.412Z,0.82
2022-09-10T08:26:52.876Z,0.90
2022-09-10T08:33:41.130Z,0.80
2022-09-10T08:34:45.197Z,1.27
2022-09-10T08:36:09.125Z,0.88
2022-09-10T08:37:12.553Z,1.00
2022-09-10T08:38:15.661Z,0.80
2022-09-10T08:39:19.010Z,0.90
2022-09-10T08:40:24.091Z,1.10
2022-09-10T08:41:44.789Z,1.00
2022-09-10T08:42:56.768Z,0.80
2022-09-10T08:44:03.397Z,0.70
2022-09-10T08:45:13.824Z,0.88
2022-09-10T08:46:22.478Z,0.93
2022-09-10T08:47:33.486Z,0.70
2022-09-10T08:48:44.543Z,1.10
2022-09-10T08:49:50.470Z,0.80
2022-09-10T08:50:58.223Z,1.10
2022-09-10T08:52:07.264Z,0.85
2022-09-10T08:53:25.740Z,0.82
2022-09-10T08:54:35.098Z,0.80
2022-09-10T08:55:42.267Z,0.93
2022-09-10T08:56:49.682Z,0.70
2022-09-10T08:57:59.558Z,1.00
2022-09-10T08:59:13.708Z,0.90
2022-09-10T09:00:33.036Z,1.30
2022-09-10T09:01:42.516Z,0.90
2022-09-10T09:02:54.258Z,0.75
2022-09-10T09:04:03.721Z,0.90
2022-09-10T09:05:15.044Z,0.75
2022-09-10T09:06:30.431Z,0.90
2022-09-10T09:07:40.229Z,0.98
2022-09-10T09:08:49.275Z,0.80
2022-09-10T09:09:56.025Z,0.90
2022-09-10T09:11:11.802Z,0.90
2022-09-10T09:12:26.597Z,1.00
2022-09-10T09:13:53.482Z,0.80
2022-09-10T09:15:09.077Z,0.80
2022-09-10T09:16:28.333Z,0.70
2022-09-10T09:17:45.685Z,0.98
2022-09-10T09:19:03.565Z,1.83
2022-09-10T09:20:17.342Z,1.40
2022-09-10T09:21:32.293Z,1.33
2022-09-10T09:22:45.479Z,1.33
2022-09-10T09:24:13.280Z,0.93
2022-09-10T09:25:28.915Z,1.20
2022-09-10T09:26:36.283Z,1.10
2022-09-10T09:27:42.698Z,1.20
2022-09-10T09:28:52.275Z,1.70
2022-09-10T09:30:01.376Z,1.50
2022-09-10T09:31:11.461Z,1.35
2022-09-10T09:32:18.349Z,1.33
2022-09-10T09:33:23.828Z,0.98
2022-09-10T09:34:35.242Z,1.20
2022-09-10T09:35:45.463Z,0.98
2022-09-10T09:36:52.328Z,0.88
2022-09-10T09:38:12.170Z,0.70
2022-09-10T09:39:24.934Z,0.90
2022-09-10T09:40:36.907Z,0.80
2022-09-10T09:41:52.406Z,0.70
2022-09-10T09:42:57.843Z,0.65
2022-09-10T09:44:18.480Z,0.90
2022-09-10T09:45:28.466Z,0.85
2022-09-10T09:46:32.360Z,0.90
2022-09-10T09:47:37.078Z,1.00
2022-09-10T09:48:44.051Z,0.75
2022-09-10T09:49:47.417Z,1.00
2022-09-10T09:50:56.570Z,1.13
2022-09-10T09:51:59.521Z,1.00
2022-09-10T09:53:13.323Z,1.27
2022-09-10T09:55:48.344Z,1.00
2022-09-10T09:56:55.153Z,1.00
2022-09-10T09:58:36.385Z,0.90
2022-09-10T09:59:40.347Z,0.90
2022-09-10T10:00:44.233Z,0.90
2022-09-10T10:01:47.038Z,0.90
2022-09-10T10:02:51.256Z,0.88
2022-09-10T10:03:58.863Z,0.95
2022-09-10T10:05:12.026Z,1.00
2022-09-10T10:06:19.945Z,0.90
2022-09-10T10:07:27.598Z,0.95
2022-09-10T10:08:34.473Z,0.90
2022-09-10T10:09:44.271Z,0.80
2022-09-10T10:10:52.501Z,1.00
2022-09-10T10:11:59.611Z,1.42
2022-09-10T10:13:02.320Z,1.35
2022-09-10T10:14:14.332Z,1.02
2022-09-10T10:15:42.225Z,1.00
2022-09-10T10:16:58.676Z,1.10
2022-09-10T10:26:59.592Z,1.63
2022-09-10T10:28:03.463Z,1.00
2022-09-10T10:29:07.146Z,0.93
2022-09-10T10:30:38.900Z,1.20
2022-09-10T10:31:44.596Z,1.15
2022-09-10T10:32:59.308Z,1.20
2022-09-10T10:34:09.847Z,1.20
2022-09-10T10:35:39.815Z,1.40
2022-09-10T10:36:49.106Z,1.10
2022-09-10T10:38:12.267Z,1.15
2022-09-10T10:39:24.524Z,1.10
2022-09-10T10:40:33.582Z,1.48
2022-09-10T10:41:58.985Z,1.00
2022-09-10T10:43:10.905Z,1.05
2022-09-10T10:44:34.024Z,0.82
2022-09-10T10:45:49.096Z,1.38
2022-09-10T10:47:02.267Z,1.05
2022-09-10T10:48:12.364Z,0.93
2022-09-10T10:49:27.097Z,1.15
2022-09-10T10:50:37.449Z,1.02
2022-09-10T10:51:49.921Z,1.10
2022-09-10T10:53:12.555Z,0.95
2022-09-10T10:54:49.506Z,1.42
2022-09-10T10:56:00.696Z,1.10
2022-09-10T10:57:17.713Z,1.73
2022-09-10T10:58:54.140Z,1.48
2022-09-10T11:00:04.113Z,1.23
2022-09-10T11:01:17.426Z,0.90
2022-09-10T11:02:28.235Z,1.10
2022-09-10T11:03:40.153Z,1.30
2022-09-10T11:04:46.742Z,0.98
2022-09-10T11:05:53.872Z,1.20
2022-09-10T11:07:02.297Z,1.02
2022-09-10T11:08:09.078Z,1.00
2022-09-10T11:09:16.822Z,1.10
2022-09-10T11:10:24.324Z,1.10
2022-09-10T11:11:33.217Z,1.10
2022-09-10T11:12:42.980Z,1.10
2022-09-10T11:13:51.303Z,1.08
2022-09-10T11:14:59.506Z,1.00
2022-09-10T11:16:06.358Z,1.05
2022-09-10T11:17:16.533Z,1.00
2022-09-10T11:18:24.274Z,1.00
2022-09-10T11:19:35.806Z,0.80
2022-09-10T11:20:42.655Z,1.20
2022-09-10T11:21:53.077Z,1.00
2022-09-10T11:23:00.410Z,1.05
2022-09-10T11:24:06.697Z,1.10
2022-09-10T11:25:17.736Z,0.90
2022-09-10T11:26:25.058Z,1.08
2022-09-10T11:27:32.338Z,0.80
2022-09-10T11:28:39.477Z,0.80
2022-09-10T11:29:48.362Z,0.80
2022-09-10T11:30:57.838Z,0.90
2022-09-10T11:32:06.854Z,0.80
2022-09-10T11:33:23.217Z,0.90
2022-09-10T11:34:34.598Z,0.82
2022-09-10T11:35:44.015Z,0.95
2022-09-10T11:36:52.267Z,0.70
2022-09-10T11:38:04.917Z,0.80
2022-09-10T11:39:17.742Z,0.82
2022-09-10T11:40:27.737Z,0.80
2022-09-10T11:41:32.817Z,0.70
2022-09-10T11:42:40.962Z,0.90
2022-09-10T11:43:50.185Z,0.70
2022-09-10T11:45:01.289Z,0.70
2022-09-10T11:46:22.305Z,0.70
2022-09-10T11:47:29.419Z,0.93
2022-09-10T11:48:40.390Z,0.80
2022-09-10T11:49:50.049Z,0.70
2022-09-10T11:50:56.581Z,0.95
2022-09-10T11:52:00.193Z,0.70
2022-09-10T11:53:07.732Z,0.70
2022-09-10T11:54:14.603Z,0.80
2022-09-10T11:55:17.791Z,0.80
2022-09-10T11:56:39.251Z,0.90
2022-09-10T11:57:59.306Z,0.90
2022-09-10T11:59:14.943Z,1.00
2022-09-10T12:00:26.538Z,0.77
2022-09-10T12:01:46.748Z,1.00
2022-09-10T12:03:23.755Z,1.00
2022-09-10T12:04:47.387Z,1.05
2022-09-10T12:06:01.963Z,0.80
2022-09-10T12:07:17.466Z,0.80
2022-09-10T12:08:30.829Z,1.02
2022-09-10T12:09:41.589Z,0.80
2022-09-10T12:11:45.445Z,0.70
2022-09-10T12:14:38.489Z,0.70
2022-09-10T12:37:24.365Z,0.70
2022-09-10T12:38:49.978Z,0.90
2022-09-10T12:40:32.493Z,0.90
2022-09-10T12:41:55.142Z,0.95
2022-09-10T12:43:01.751Z,0.85
2022-09-10T12:44:25.046Z,0.60
2022-09-10T12:46:05.494Z,0.90
2022-09-10T12:47:48.641Z,0.98
2022-09-10T12:50:06.248Z,0.77
2022-09-10T12:52:31.864Z,0.90
2022-09-10T13:05:05.986Z,0.80
2022-09-10T13:10:53.290Z,0.82
2022-09-10T13:15:16.722Z,0.90
2022-09-10T13:20:05.334Z,0.80
2022-09-10T13:24:03.412Z,1.55
2022-09-10T13:26:15.290Z,1.10
2022-09-10T13:30:00.374Z,0.80
2022-09-10T13:37:40.834Z,0.63
2022-09-10T13:39:58.298Z,0.75
2022-09-10T13:44:39.548Z,0.60
2022-09-10T13:46:26.338Z,0.90
2022-09-10T13:48:01.813Z,0.80
2022-09-10T13:49:31.771Z,0.75
2022-09-10T13:51:45.944Z,0.90
2022-09-10T13:55:19.467Z,0.70
2022-09-10T13:56:35.267Z,0.70
2022-09-10T13:57:52.085Z,0.80
2022-09-10T13:59:07.553Z,0.70
2022-09-10T14:00:36.488Z,0.80
2022-09-10T14:02:09.104Z,0.80
2022-09-10T14:03:27.302Z,0.80
2022-09-10T14:04:35.531Z,0.85
2022-09-10T14:05:55.579Z,0.80
2022-09-10T14:07:24.041Z,1.08
2022-09-10T14:08:44.330Z,0.70
2022-09-10T14:09:59.623Z,0.65
2022-09-10T14:11:27.348Z,0.73
2022-09-10T14:12:43.965Z,1.00
2022-09-10T14:13:56.783Z,1.13
2022-09-10T14:15:12.398Z,0.80
2022-09-10T14:16:30.379Z,0.80
2022-09-10T14:17:48.924Z,0.65
2022-09-10T14:18:59.896Z,1.25
2022-09-10T14:20:27.401Z,0.90
2022-09-10T14:22:02.615Z,0.80
2022-09-10T14:23:25.492Z,0.65
2022-09-10T14:25:01.886Z,0.70
2022-09-10T14:26:12.238Z,1.02
2022-09-10T14:27:35.903Z,0.73
2022-09-10T14:28:59.920Z,0.73
2022-09-10T14:30:24.732Z,1.00
2022-09-10T14:31:38.981Z,0.70
2022-09-10T14:32:55.383Z,0.90
2022-09-10T14:34:10.654Z,1.00
2022-09-10T14:35:41.695Z,0.60
2022-09-10T14:36:53.009Z,0.80
2022-09-10T14:38:07.179Z,0.80
2022-09-10T14:39:24.543Z,0.90
2022-09-10T14:41:00.388Z,0.90
2022-09-10T14:42:21.691Z,0.77
2022-09-10T14:43:32.814Z,0.80
2022-09-10T14:44:41.861Z,0.80
2022-09-10T14:45:52.377Z,1.00
2022-09-10T14:47:01.177Z,0.90
2022-09-10T14:48:26.168Z,0.70
2022-09-10T14:49:53.256Z,0.70
2022-09-10T14:51:47.238Z,0.70
2022-09-10T14:52:56.947Z,0.68
2022-09-10T14:54:16.274Z,0.90
2022-09-10T14:57:15.988Z,0.77
2022-09-10T14:58:18.572Z,0.90
2022-09-10T14:59:34.074Z,0.70
2022-09-10T15:00:52.717Z,0.65
2022-09-10T15:02:01.329Z,0.60
2022-09-10T15:03:20.195Z,0.70
2022-09-10T15:04:29.557Z,1.13
2022-09-10T15:05:43.243Z,0.70
2022-09-10T15:07:00.099Z,0.75
2022-09-10T15:08:15.114Z,1.00
2022-09-10T15:09:28.807Z,0.60
2022-09-10T15:10:33.188Z,0.70
2022-09-10T15:12:03.576Z,0.60
2022-09-10T15:13:29.474Z,0.95
2022-09-10T15:14:45.525Z,0.95
2022-09-10T15:15:57.657Z,0.73
2022-09-10T15:17:56.560Z,0.80
2022-09-10T15:19:08.343Z,0.70
2022-09-10T15:22:10.071Z,0.80
2022-09-10T15:23:41.932Z,0.70
2022-09-10T15:25:10.867Z,0.85
2022-09-10T15:26:16.966Z,1.40
2022-09-10T15:27:25.845Z,1.00
2022-09-10T15:28:38.339Z,0.77
2022-09-10T15:29:48.118Z,1.42
2022-09-10T15:31:10.491Z,0.90
2022-09-10T15:32:26.504Z,0.93
2022-09-10T15:33:36.285Z,0.73
2022-09-10T15:35:27.426Z,0.95
2022-09-10T15:36:45.688Z,0.80
2022-09-10T15:37:55.700Z,0.85
2022-09-10T15:39:26.484Z,1.08
2022-09-10T15:40:32.016Z,0.80
2022-09-10T15:41:59.233Z,0.70
2022-09-10T15:43:09.025Z,0.52
2022-09-10T15:44:40.982Z,0.85
2022-09-10T15:45:43.745Z,0.70
2022-09-10T15:47:11.023Z,0.88
2022-09-10T15:48:35.435Z,1.00
2022-09-10T15:49:58.435Z,0.70
2022-09-10T15:51:19.649Z,0.80
2022-09-10T15:52:37.487Z,1.10
2022-09-10T15:54:04.797Z,0.85
2022-09-10T15:55:33.165Z,1.00
2022-09-10T15:57:08.121Z,0.80
2022-09-10T15:58:48.929Z,1.00
2022-09-10T16:02:37.293Z,0.80
2022-09-10T16:04:11.547Z,0.80
2022-09-10T16:05:48.028Z,0.73
2022-09-10T16:11:38.047Z,0.90
2022-09-10T16:36:01.248Z,1.00
2022-09-10T16:37:58.225Z,0.70
2022-09-10T16:39:28.415Z,0.70
2022-09-10T16:41:26.603Z,1.00
2022-09-10T16:44:24.787Z,0.80
2022-09-10T16:45:42.208Z,0.80
2022-09-10T16:47:33.031Z,1.20
2022-09-10T16:52:40.329Z,1.40
2022-09-10T16:54:13.356Z,1.50
2022-09-10T16:55:40.241Z,2.50
2022-09-10T16:59:42.406Z,1.85
2022-09-10T17:01:21.520Z,1.95
2022-09-10T17:02:41.709Z,2.20
2022-09-10T17:03:52.814Z,1.90
2022-09-10T17:05:25.614Z,2.28
2022-09-10T17:06:54.981Z,1.85
2022-09-10T17:08:25.807Z,1.27
2022-09-10T17:09:29.843Z,1.75
2022-09-10T17:10:35.630Z,1.65
2022-09-10T17:11:41.015Z,1.80
2022-09-10T17:12:44.387Z,1.80
2022-09-10T17:13:51.029Z,1.83
2022-09-10T17:14:57.814Z,1.73
2022-09-10T17:16:15.478Z,1.73
2022-09-10T17:17:18.888Z,1.50
2022-09-10T17:18:21.126Z,1.60
2022-09-10T17:19:26.834Z,2.30
2022-09-10T17:20:31.541Z,2.50
2022-09-10T17:21:36.452Z,2.50
2022-09-10T17:22:46.547Z,2.50
2022-09-10T17:24:00.641Z,2.45
2022-09-10T17:25:07.115Z,1.73
2022-09-10T17:26:11.182Z,2.08
2022-09-10T17:27:13.869Z,1.52
2022-09-10T17:28:19.942Z,1.17
2022-09-10T17:29:24.834Z,1.17
2022-09-10T17:30:27.512Z,1.33
2022-09-10T17:31:34.568Z,1.23
2022-09-10T17:32:40.716Z,1.35
2022-09-10T17:33:43.723Z,0.98
2022-09-10T17:34:55.161Z,1.23
2022-09-10T17:36:02.050Z,1.35
2022-09-10T17:37:12.804Z,1.20
2022-09-10T17:38:15.005Z,0.90
2022-09-10T17:39:22.638Z,1.08
2022-09-10T17:40:30.205Z,0.90
2022-09-10T17:41:40.284Z,1.00
2022-09-10T17:42:46.164Z,1.13
2022-09-10T17:43:51.082Z,1.27
2022-09-10T17:44:54.482Z,1.20
2022-09-10T17:45:58.345Z,1.58
2022-09-10T17:47:04.445Z,1.30
2022-09-10T17:48:06.698Z,1.27
2022-09-10T17:49:13.381Z,1.15
2022-09-10T17:50:17.856Z,1.55
2022-09-10T17:51:23.261Z,1.75
2022-09-10T17:52:28.991Z,1.73
2022-09-10T17:53:36.100Z,1.80
2022-09-10T17:54:44.724Z,1.80
2022-09-10T17:55:52.806Z,2.05